sensor_id;sensor_type;location;lat;lon;timestamp;pressure;altitude;pressure_sealevel;temperature;humidity
10097;BME280;5087;42.662;23.466;2022-09-24T00:00:54;95768.34;;;2.21;100.00
10097;BME280;5087;42.662;23.466;2022-09-24T00:03:23;95775.63;;;2.26;100.00
10097;BME280;5087;42.662;23.466;2022-09-24T00:05:51;95783.06;;;2.19;100.00
10097;BME280;5087;42.662;23.466;2022-09-24T00:08:20;95781.59;;;2.06;100.00
10097;BME280;5087;42.662;23.466;2022-09-24T00:10:47;95759.97;;;1.85;100.00
10097;BME280;5087;42.662;23.466;2022-09-24T00:13:17;95787.50;;;1.81;100.00
10097;BME280;5087;42.662;23.466;2022-09-24T00:15:46;95782.09;;;1.76;100.00
10097;BME280;5087;42.662;23.466;2022-09-24T00:18:17;95782.75;;;1.66;100.00
10097;BME280;5087;42.662;23.466;2022-09-24T00:20:47;95777.34;;;1.61;100.00
10097;BME280;5087;42.662;23.466;2022-09-24T00:23:14;95784.06;;;1.63;100.00
10097;BME280;5087;42.662;23.466;2022-09-24T00:25:44;95778.97;;;1.62;100.00
10097;BME280;5087;42.662;23.466;2022-09-24T00:28:30;95776.28;;;1.62;100.00
10097;BME280;5087;42.662;23.466;2022-09-24T00:30:58;95758.31;;;1.57;100.00
10097;BME280;5087;42.662;23.466;2022-09-24T00:33:26;95771.56;;;1.69;100.00
10097;BME280;5087;42.662;23.466;2022-09-24T00:35:58;95783.50;;;1.83;100.00
10097;BME280;5087;42.662;23.466;2022-09-24T00:38:27;95771.56;;;1.69;100.00
10097;BME280;5087;42.662;23.466;2022-09-24T00:40:55;95776.47;;;1.77;100.00
10097;BME280;5087;42.662;23.466;2022-09-24T00:43:24;95785.56;;;1.76;100.00
10097;BME280;5087;42.662;23.466;2022-09-24T00:45:54;95780.47;;;1.74;100.00
10097;BME280;5087;42.662;23.466;2022-09-24T00:48:23;95783.06;;;1.69;100.00
10097;BME280;5087;42.662;23.466;2022-09-24T00:50:51;95778.53;;;1.70;100.00
10097;BME280;5087;42.662;23.466;2022-09-24T00:53:21;95780.16;;;1.71;100.00
10097;BME280;5087;42.662;23.466;2022-09-24T00:55:55;95758.56;;;1.55;100.00
10097;BME280;5087;42.662;23.466;2022-09-24T00:58:23;95766.59;;;1.55;100.00
10097;BME280;5087;42.662;23.466;2022-09-24T01:00:55;95771.44;;;1.58;100.00
10097;BME280;5087;42.662;23.466;2022-09-24T01:03:24;95785.31;;;1.55;100.00
10097;BME280;5087;42.662;23.466;2022-09-24T01:05:52;95771.31;;;1.48;100.00
10097;BME280;5087;42.662;23.466;2022-09-24T01:08:21;95735.16;;;1.23;100.00
10097;BME280;5087;42.662;23.466;2022-09-24T01:11:09;95768.03;;;1.41;100.00
10097;BME280;5087;42.662;23.466;2022-09-24T01:13:54;95765.84;;;1.38;100.00
10097;BME280;5087;42.662;23.466;2022-09-24T01:16:32;95766.88;;;1.37;100.00
10097;BME280;5087;42.662;23.466;2022-09-24T01:19:09;95767.94;;;1.36;100.00
10097;BME280;5087;42.662;23.466;2022-09-24T01:21:46;95764.22;;;1.37;100.00
10097;BME280;5087;42.662;23.466;2022-09-24T01:24:43;95767.47;;;1.39;100.00
10097;BME280;5087;42.662;23.466;2022-09-24T01:27:18;95767.47;;;1.39;100.00
10097;BME280;5087;42.662;23.466;2022-09-24T01:29:55;95769.56;;;1.37;100.00
10097;BME280;5087;42.662;23.466;2022-09-24T01:32:30;95744.19;;;1.17;100.00
10097;BME280;5087;42.662;23.466;2022-09-24T01:35:07;95766.88;;;1.37;100.00
10097;BME280;5087;42.662;23.466;2022-09-24T01:37:40;95759.69;;;1.37;100.00
10097;BME280;5087;42.662;23.466;2022-09-24T01:40:10;95766.94;;;1.42;100.00
10097;BME280;5087;42.662;23.466;2022-09-24T01:42:39;95768.78;;;1.36;100.00
10097;BME280;5087;42.662;23.466;2022-09-24T01:45:10;95769.50;;;1.32;100.00
10097;BME280;5087;42.662;23.466;2022-09-24T01:47:39;95774.78;;;1.26;100.00
10097;BME280;5087;42.662;23.466;2022-09-24T01:50:08;95774.72;;;1.21;100.00
10097;BME280;5087;42.662;23.466;2022-09-24T01:52:40;95767.19;;;1.18;100.00
10097;BME280;5087;42.662;23.466;2022-09-24T01:55:10;95783.16;;;1.13;100.00
10097;BME280;5087;42.662;23.466;2022-09-24T01:57:40;95751.19;;;1.01;100.00
10097;BME280;5087;42.662;23.466;2022-09-24T02:00:13;95780.69;;;1.06;100.00
10097;BME280;5087;42.662;23.466;2022-09-24T02:02:44;95783.09;;;1.08;100.00
10097;BME280;5087;42.662;23.466;2022-09-24T02:05:19;95786.19;;;1.00;100.00
10097;BME280;5087;42.662;23.466;2022-09-24T02:07:55;95762.78;;;0.90;100.00
10097;BME280;5087;42.662;23.466;2022-09-24T02:10:28;95782.31;;;0.90;100.00
10097;BME280;5087;42.662;23.466;2022-09-24T02:12:59;95794.47;;;0.98;100.00
10097;BME280;5087;42.662;23.466;2022-09-24T02:15:31;95797.94;;;0.99;100.00
10097;BME280;5087;42.662;23.466;2022-09-24T02:18:03;95805.16;;;0.98;100.00
10097;BME280;5087;42.662;23.466;2022-09-24T02:20:34;95809.34;;;0.94;100.00
10097;BME280;5087;42.662;23.466;2022-09-24T02:23:03;95813.34;;;0.91;100.00
10097;BME280;5087;42.662;23.466;2022-09-24T02:25:33;95818.03;;;0.84;100.00
10097;BME280;5087;42.662;23.466;2022-09-24T02:28:04;95807.19;;;0.74;100.00
10097;BME280;5087;42.662;23.466;2022-09-24T02:30:42;95816.66;;;0.82;100.00
10097;BME280;5087;42.662;23.466;2022-09-24T02:33:13;95798.50;;;0.67;100.00
10097;BME280;5087;42.662;23.466;2022-09-24T02:35:58;95824.63;;;0.76;100.00
10097;BME280;5087;42.662;23.466;2022-09-24T02:38:26;95802.16;;;0.60;100.00
10097;BME280;5087;42.662;23.466;2022-09-24T02:40:53;95817.78;;;0.69;100.00
10097;BME280;5087;42.662;23.466;2022-09-24T02:43:21;95821.69;;;0.78;100.00
10097;BME280;5087;42.662;23.466;2022-09-24T02:45:50;95817.78;;;0.69;100.00
10097;BME280;5087;42.662;23.466;2022-09-24T02:48:19;95827.03;;;0.78;100.00
10097;BME280;5087;42.662;23.466;2022-09-24T02:50:47;95813.91;;;0.76;100.00
10097;BME280;5087;42.662;23.466;2022-09-24T02:53:14;95830.44;;;0.73;100.00
10097;BME280;5087;42.662;23.466;2022-09-24T02:55:41;95831.22;;;0.74;100.00
10097;BME280;5087;42.662;23.466;2022-09-24T02:58:08;95830.28;;;0.80;100.00
10097;BME280;5087;42.662;23.466;2022-09-24T03:00:35;95837.88;;;0.88;100.00
10097;BME280;5087;42.662;23.466;2022-09-24T03:03:04;95842.25;;;0.94;100.00
10097;BME280;5087;42.662;23.466;2022-09-24T03:05:31;95825.81;;;0.69;100.00
10097;BME280;5087;42.662;23.466;2022-09-24T03:07:59;95848.16;;;0.79;100.00
10097;BME280;5087;42.662;23.466;2022-09-24T03:10:27;95841.38;;;0.72;100.00
10097;BME280;5087;42.662;23.466;2022-09-24T03:12:54;95830.56;;;0.67;100.00
10097;BME280;5087;42.662;23.466;2022-09-24T03:15:21;95834.31;;;0.66;100.00
10097;BME280;5087;42.662;23.466;2022-09-24T03:17:48;95832.53;;;0.71;100.00
10097;BME280;5087;42.662;23.466;2022-09-24T03:20:17;95835.69;;;0.68;100.00
10097;BME280;5087;42.662;23.466;2022-09-24T03:22:49;95850.50;;;0.76;100.00
10097;BME280;5087;42.662;23.466;2022-09-24T03:25:16;95836.16;;;0.82;100.00
10097;BME280;5087;42.662;23.466;2022-09-24T03:27:44;95814.78;;;0.65;100.00
10097;BME280;5087;42.662;23.466;2022-09-24T03:30:12;95829.13;;;0.76;100.00
10097;BME280;5087;42.662;23.466;2022-09-24T03:32:56;95843.06;;;0.78;100.00
10097;BME280;5087;42.662;23.466;2022-09-24T03:35:25;95833.81;;;0.69;100.00
10097;BME280;5087;42.662;23.466;2022-09-24T03:37:54;95847.25;;;0.74;100.00
10097;BME280;5087;42.662;23.466;2022-09-24T03:40:21;95841.91;;;0.74;100.00
10097;BME280;5087;42.662;23.466;2022-09-24T03:42:50;95859.56;;;0.75;100.00
10097;BME280;5087;42.662;23.466;2022-09-24T03:45:17;95853.75;;;0.61;100.00
10097;BME280;5087;42.662;23.466;2022-09-24T03:47:45;95860.56;;;0.69;100.00
10097;BME280;5087;42.662;23.466;2022-09-24T03:50:13;95844.13;;;0.60;100.00
10097;BME280;5087;42.662;23.466;2022-09-24T03:52:43;95856.25;;;0.68;100.00
10097;BME280;5087;42.662;23.466;2022-09-24T03:55:10;95843.22;;;0.54;100.00
10097;BME280;5087;42.662;23.466;2022-09-24T03:57:37;95863.94;;;0.64;100.00
10097;BME280;5087;42.662;23.466;2022-09-24T04:00:05;95857.94;;;0.57;100.00
10097;BME280;5087;42.662;23.466;2022-09-24T04:02:33;95845.47;;;0.45;100.00
10097;BME280;5087;42.662;23.466;2022-09-24T04:05:01;95864.00;;;0.52;100.00
10097;BME280;5087;42.662;23.466;2022-09-24T04:07:28;95873.50;;;0.60;100.00
10097;BME280;5087;42.662;23.466;2022-09-24T04:09:56;95871.56;;;0.55;100.00
10097;BME280;5087;42.662;23.466;2022-09-24T04:12:23;95858.59;;;0.47;100.00
10097;BME280;5087;42.662;23.466;2022-09-24T04:14:51;95861.50;;;0.45;100.00
10097;BME280;5087;42.662;23.466;2022-09-24T04:17:21;95869.59;;;0.51;100.00
10097;BME280;5087;42.662;23.466;2022-09-24T04:19:48;95867.63;;;0.46;100.00
10097;BME280;5087;42.662;23.466;2022-09-24T04:22:19;95868.69;;;0.45;100.00
10097;BME280;5087;42.662;23.466;2022-09-24T04:24:46;95879.00;;;0.53;100.00
10097;BME280;5087;42.662;23.466;2022-09-24T04:27:17;95875.94;;;0.61;100.00
10097;BME280;5087;42.662;23.466;2022-09-24T04:29:45;95864.78;;;0.65;100.00
10097;BME280;5087;42.662;23.466;2022-09-24T04:32:12;95849.47;;;0.60;100.00
10097;BME280;5087;42.662;23.466;2022-09-24T04:34:39;95883.88;;;0.90;100.00
10097;BME280;5087;42.662;23.466;2022-09-24T04:37:06;95882.38;;;0.94;100.00
10097;BME280;5087;42.662;23.466;2022-09-24T04:39:34;95889.47;;;0.89;100.00
10097;BME280;5087;42.662;23.466;2022-09-24T04:42:01;95883.41;;;0.93;100.00
10097;BME280;5087;42.662;23.466;2022-09-24T04:44:30;95887.84;;;1.05;100.00
10097;BME280;5087;42.662;23.466;2022-09-24T04:46:57;95895.06;;;1.21;100.00
10097;BME280;5087;42.662;23.466;2022-09-24T04:49:28;95866.94;;;1.19;100.00
10097;BME280;5087;42.662;23.466;2022-09-24T04:51:55;95892.63;;;1.37;100.00
10097;BME280;5087;42.662;23.466;2022-09-24T04:54:23;95894.19;;;1.33;100.00
10097;BME280;5087;42.662;23.466;2022-09-24T04:56:52;95887.00;;;1.38;100.00
10097;BME280;5087;42.662;23.466;2022-09-24T04:59:21;95881.59;;;1.33;100.00
10097;BME280;5087;42.662;23.466;2022-09-24T05:01:49;95879.59;;;1.23;100.00
10097;BME280;5087;42.662;23.466;2022-09-24T05:04:19;95892.13;;;1.23;100.00
10097;BME280;5087;42.662;23.466;2022-09-24T05:06:46;95895.28;;;1.37;100.00
10097;BME280;5087;42.662;23.466;2022-09-24T05:09:14;95889.38;;;1.35;100.00
10097;BME280;5087;42.662;23.466;2022-09-24T05:11:41;95892.44;;;1.61;100.00
10097;BME280;5087;42.662;23.466;2022-09-24T05:14:08;95894.63;;;1.64;100.00
10097;BME280;5087;42.662;23.466;2022-09-24T05:16:36;95881.50;;;1.45;100.00
10097;BME280;5087;42.662;23.466;2022-09-24T05:19:05;95891.53;;;1.72;100.00
10097;BME280;5087;42.662;23.466;2022-09-24T05:21:32;95874.94;;;1.75;100.00
10097;BME280;5087;42.662;23.466;2022-09-24T05:23:59;95877.56;;;1.92;100.00
10097;BME280;5087;42.662;23.466;2022-09-24T05:26:27;95882.44;;;1.95;100.00
10097;BME280;5087;42.662;23.466;2022-09-24T05:29:11;95883.78;;;2.20;100.00
10097;BME280;5087;42.662;23.466;2022-09-24T05:31:39;95872.59;;;2.01;100.00
10097;BME280;5087;42.662;23.466;2022-09-24T05:34:08;95887.72;;;2.12;100.00
10097;BME280;5087;42.662;23.466;2022-09-24T05:36:35;95884.38;;;2.49;100.00
10097;BME280;5087;42.662;23.466;2022-09-24T05:39:02;95889.38;;;2.68;100.00
10097;BME280;5087;42.662;23.466;2022-09-24T05:41:32;95892.97;;;3.11;100.00
10097;BME280;5087;42.662;23.466;2022-09-24T05:44:00;95898.09;;;3.51;100.00
10097;BME280;5087;42.662;23.466;2022-09-24T05:46:28;95886.81;;;3.48;100.00
10097;BME280;5087;42.662;23.466;2022-09-24T05:48:56;95894.63;;;3.55;100.00
10097;BME280;5087;42.662;23.466;2022-09-24T05:51:24;95888.78;;;3.63;100.00
10097;BME280;5087;42.662;23.466;2022-09-24T05:53:51;95896.41;;;3.82;100.00
10097;BME280;5087;42.662;23.466;2022-09-24T05:56:21;95891.47;;;4.27;100.00
10097;BME280;5087;42.662;23.466;2022-09-24T05:58:48;95890.16;;;4.30;100.00
10097;BME280;5087;42.662;23.466;2022-09-24T06:01:16;95888.38;;;4.56;100.00
10097;BME280;5087;42.662;23.466;2022-09-24T06:03:43;95883.56;;;4.79;100.00
10097;BME280;5087;42.662;23.466;2022-09-24T06:06:10;95893.69;;;4.40;100.00
10097;BME280;5087;42.662;23.466;2022-09-24T06:08:38;95883.63;;;4.05;100.00
10097;BME280;5087;42.662;23.466;2022-09-24T06:11:06;95901.72;;;4.25;100.00
10097;BME280;5087;42.662;23.466;2022-09-24T06:13:34;95878.09;;;4.42;100.00
10097;BME280;5087;42.662;23.466;2022-09-24T06:16:02;95878.16;;;4.73;100.00
10097;BME280;5087;42.662;23.466;2022-09-24T06:18:29;95873.34;;;5.22;100.00
10097;BME280;5087;42.662;23.466;2022-09-24T06:21:00;95898.84;;;5.76;100.00
10097;BME280;5087;42.662;23.466;2022-09-24T06:23:28;95891.59;;;5.71;100.00
10097;BME280;5087;42.662;23.466;2022-09-24T06:25:57;95901.22;;;5.98;100.00
10097;BME280;5087;42.662;23.466;2022-09-24T06:28:24;95887.59;;;5.59;100.00
10097;BME280;5087;42.662;23.466;2022-09-24T06:30:52;95887.88;;;5.52;100.00
10097;BME280;5087;42.662;23.466;2022-09-24T06:33:19;95896.47;;;5.33;100.00
10097;BME280;5087;42.662;23.466;2022-09-24T06:35:48;95866.56;;;5.66;100.00
10097;BME280;5087;42.662;23.466;2022-09-24T06:38:16;95899.13;;;6.00;100.00
10097;BME280;5087;42.662;23.466;2022-09-24T06:40:45;95889.16;;;6.61;100.00
10097;BME280;5087;42.662;23.466;2022-09-24T06:43:14;95874.75;;;6.76;100.00
10097;BME280;5087;42.662;23.466;2022-09-24T06:45:42;95874.00;;;6.65;100.00
10097;BME280;5087;42.662;23.466;2022-09-24T06:48:11;95898.44;;;6.34;100.00
10097;BME280;5087;42.662;23.466;2022-09-24T06:50:40;95894.53;;;6.56;100.00
10097;BME280;5087;42.662;23.466;2022-09-24T06:53:08;95888.88;;;7.37;100.00
10097;BME280;5087;42.662;23.466;2022-09-24T06:55:36;95877.31;;;6.97;100.00
10097;BME280;5087;42.662;23.466;2022-09-24T06:58:05;95887.03;;;7.62;100.00
10097;BME280;5087;42.662;23.466;2022-09-24T07:00:34;95892.22;;;8.55;100.00
10097;BME280;5087;42.662;23.466;2022-09-24T07:03:02;95878.41;;;8.33;100.00
10097;BME280;5087;42.662;23.466;2022-09-24T07:05:29;95859.69;;;7.69;100.00
10097;BME280;5087;42.662;23.466;2022-09-24T07:07:56;95869.34;;;7.75;100.00
10097;BME280;5087;42.662;23.466;2022-09-24T07:10:23;95880.34;;;8.08;100.00
10097;BME280;5087;42.662;23.466;2022-09-24T07:12:52;95867.50;;;7.95;100.00
10097;BME280;5087;42.662;23.466;2022-09-24T07:15:19;95881.84;;;9.01;100.00
10097;BME280;5087;42.662;23.466;2022-09-24T07:17:48;95880.41;;;9.42;100.00
10097;BME280;5087;42.662;23.466;2022-09-24T07:20:20;95865.84;;;10.12;100.00
10097;BME280;5087;42.662;23.466;2022-09-24T07:22:52;95878.72;;;10.63;100.00
10097;BME280;5087;42.662;23.466;2022-09-24T07:25:20;95866.47;;;10.88;100.00
10097;BME280;5087;42.662;23.466;2022-09-24T07:27:47;95884.53;;;10.56;100.00
10097;BME280;5087;42.662;23.466;2022-09-24T07:30:15;95874.91;;;10.22;100.00
10097;BME280;5087;42.662;23.466;2022-09-24T07:32:42;95883.09;;;9.61;100.00
10097;BME280;5087;42.662;23.466;2022-09-24T07:35:11;95861.44;;;9.09;100.00
10097;BME280;5087;42.662;23.466;2022-09-24T07:37:39;95863.28;;;8.56;100.00
10097;BME280;5087;42.662;23.466;2022-09-24T07:40:07;95857.13;;;8.50;100.00
10097;BME280;5087;42.662;23.466;2022-09-24T07:42:34;95870.94;;;9.25;100.00
10097;BME280;5087;42.662;23.466;2022-09-24T07:45:02;95866.31;;;9.26;100.00
10097;BME280;5087;42.662;23.466;2022-09-24T07:47:29;95849.53;;;9.57;100.00
10097;BME280;5087;42.662;23.466;2022-09-24T07:49:56;95870.78;;;10.38;100.00
10097;BME280;5087;42.662;23.466;2022-09-24T07:52:25;95859.81;;;10.57;100.00
10097;BME280;5087;42.662;23.466;2022-09-24T07:54:52;95867.75;;;10.12;100.00
10097;BME280;5087;42.662;23.466;2022-09-24T07:57:20;95839.78;;;10.67;100.00
10097;BME280;5087;42.662;23.466;2022-09-24T07:59:47;95854.72;;;10.42;100.00
10097;BME280;5087;42.662;23.466;2022-09-24T08:02:16;95863.72;;;10.51;100.00
10097;BME280;5087;42.662;23.466;2022-09-24T08:04:46;95838.34;;;10.05;100.00
10097;BME280;5087;42.662;23.466;2022-09-24T08:07:14;95821.91;;;10.89;100.00
10097;BME280;5087;42.662;23.466;2022-09-24T08:09:42;95846.44;;;10.61;100.00
10097;BME280;5087;42.662;23.466;2022-09-24T08:12:10;95847.53;;;11.19;100.00
10097;BME280;5087;42.662;23.466;2022-09-24T08:14:38;95842.97;;;12.14;100.00
10097;BME280;5087;42.662;23.466;2022-09-24T08:17:06;95849.88;;;11.89;100.00
10097;BME280;5087;42.662;23.466;2022-09-24T08:19:34;95847.47;;;11.33;100.00
10097;BME280;5087;42.662;23.466;2022-09-24T08:22:01;95844.53;;;11.21;100.00
10097;BME280;5087;42.662;23.466;2022-09-24T08:24:29;95833.88;;;11.87;100.00
10097;BME280;5087;42.662;23.466;2022-09-24T08:26:58;95838.84;;;12.34;100.00
10097;BME280;5087;42.662;23.466;2022-09-24T08:29:26;95839.84;;;12.56;100.00
10097;BME280;5087;42.662;23.466;2022-09-24T08:31:53;95839.56;;;12.84;100.00
10097;BME280;5087;42.662;23.466;2022-09-24T08:34:20;95826.41;;;12.69;100.00
10097;BME280;5087;42.662;23.466;2022-09-24T08:36:47;95825.94;;;12.84;100.00
10097;BME280;5087;42.662;23.466;2022-09-24T08:39:15;95832.91;;;12.32;100.00
10097;BME280;5087;42.662;23.466;2022-09-24T08:41:52;95809.91;;;12.82;100.00
10097;BME280;5087;42.662;23.466;2022-09-24T08:44:29;95828.34;;;13.38;100.00
10097;BME280;5087;42.662;23.466;2022-09-24T08:47:26;95829.56;;;13.67;98.42
10097;BME280;5087;42.662;23.466;2022-09-24T08:50:02;95837.63;;;14.02;96.38
10097;BME280;5087;42.662;23.466;2022-09-24T08:52:57;95827.09;;;15.03;91.29
10097;BME280;5087;42.662;23.466;2022-09-24T08:55:34;95793.22;;;15.62;87.43
10097;BME280;5087;42.662;23.466;2022-09-24T08:58:18;95822.25;;;13.89;90.95
10097;BME280;5087;42.662;23.466;2022-09-24T09:00:51;95819.34;;;13.47;93.20
10097;BME280;5087;42.662;23.466;2022-09-24T09:03:28;95817.09;;;13.31;96.18
10097;BME280;5087;42.662;23.466;2022-09-24T09:06:00;95772.81;;;12.11;98.66
10097;BME280;5087;42.662;23.466;2022-09-24T09:08:35;95793.75;;;12.95;99.35
10097;BME280;5087;42.662;23.466;2022-09-24T09:11:11;95806.88;;;13.84;94.27
10097;BME280;5087;42.662;23.466;2022-09-24T09:13:42;95787.03;;;13.75;92.48
10097;BME280;5087;42.662;23.466;2022-09-24T09:16:21;95801.25;;;13.89;90.53
10097;BME280;5087;42.662;23.466;2022-09-24T09:18:50;95796.66;;;14.11;90.01
10097;BME280;5087;42.662;23.466;2022-09-24T09:21:25;95795.88;;;14.02;91.96
10097;BME280;5087;42.662;23.466;2022-09-24T09:23:55;95766.13;;;15.02;86.94
10097;BME280;5087;42.662;23.466;2022-09-24T09:26:24;95776.69;;;14.92;82.66
10097;BME280;5087;42.662;23.466;2022-09-24T09:28:55;95791.59;;;15.15;82.59
10097;BME280;5087;42.662;23.466;2022-09-24T09:31:34;95772.78;;;15.60;81.21
10097;BME280;5087;42.662;23.466;2022-09-24T09:34:16;95766.94;;;15.95;78.44
10097;BME280;5087;42.662;23.466;2022-09-24T09:36:57;95779.72;;;16.03;78.37
10097;BME280;5087;42.662;23.466;2022-09-24T09:39:38;95768.66;;;16.24;76.13
10097;BME280;5087;42.662;23.466;2022-09-24T09:42:26;95761.47;;;16.20;74.37
10097;BME280;5087;42.662;23.466;2022-09-24T09:44:55;95736.66;;;15.54;74.82
10097;BME280;5087;42.662;23.466;2022-09-24T09:47:30;95748.91;;;15.35;76.53
10097;BME280;5087;42.662;23.466;2022-09-24T09:50:05;95752.41;;;15.82;73.57
10097;BME280;5087;42.662;23.466;2022-09-24T09:52:35;95747.91;;;16.64;71.91
10097;BME280;5087;42.662;23.466;2022-09-24T09:55:05;95746.09;;;16.56;72.36
10097;BME280;5087;42.662;23.466;2022-09-24T09:57:34;95730.69;;;16.51;69.26
10097;BME280;5087;42.662;23.466;2022-09-24T10:00:02;95736.84;;;16.48;70.20
10097;BME280;5087;42.662;23.466;2022-09-24T10:02:40;95729.66;;;16.56;69.17
10097;BME280;5087;42.662;23.466;2022-09-24T10:05:18;95696.03;;;16.71;69.75
10097;BME280;5087;42.662;23.466;2022-09-24T10:07:46;95719.59;;;16.60;67.70
10097;BME280;5087;42.662;23.466;2022-09-24T10:10:18;95723.84;;;16.86;67.01
10097;BME280;5087;42.662;23.466;2022-09-24T10:12:46;95720.88;;;17.19;67.09
10097;BME280;5087;42.662;23.466;2022-09-24T10:15:16;95720.00;;;16.74;67.05
10097;BME280;5087;42.662;23.466;2022-09-24T10:17:48;95710.72;;;17.20;66.97
10097;BME280;5087;42.662;23.466;2022-09-24T10:20:20;95709.72;;;17.28;65.41
10097;BME280;5087;42.662;23.466;2022-09-24T10:22:50;95696.28;;;17.23;64.44
10097;BME280;5087;42.662;23.466;2022-09-24T10:25:23;95688.13;;;17.75;62.67
10097;BME280;5087;42.662;23.466;2022-09-24T10:27:52;95711.28;;;17.74;61.01
10097;BME280;5087;42.662;23.466;2022-09-24T10:30:49;95712.34;;;18.37;61.22
10097;BME280;5087;42.662;23.466;2022-09-24T10:33:17;95707.47;;;18.65;59.65
10097;BME280;5087;42.662;23.466;2022-09-24T10:35:48;95702.38;;;18.48;60.35
10097;BME280;5087;42.662;23.466;2022-09-24T10:38:17;95711.47;;;18.32;58.41
10097;BME280;5087;42.662;23.466;2022-09-24T10:40:46;95690.69;;;19.10;58.32
10097;BME280;5087;42.662;23.466;2022-09-24T10:43:16;95686.25;;;19.95;58.10
10097;BME280;5087;42.662;23.466;2022-09-24T10:46:01;95684.22;;;19.68;54.49
10097;BME280;5087;42.662;23.466;2022-09-24T10:48:36;95690.72;;;19.56;53.78
10097;BME280;5087;42.662;23.466;2022-09-24T10:51:15;95695.34;;;17.95;56.99
10097;BME280;5087;42.662;23.466;2022-09-24T10:53:54;95663.72;;;18.21;57.67
10097;BME280;5087;42.662;23.466;2022-09-24T10:56:31;95685.31;;;19.40;55.82
10097;BME280;5087;42.662;23.466;2022-09-24T10:59:35;95684.53;;;19.40;54.80
10097;BME280;5087;42.662;23.466;2022-09-24T11:02:25;95673.41;;;20.06;53.96
10097;BME280;5087;42.662;23.466;2022-09-24T11:04:58;95665.78;;;19.72;53.15
10097;BME280;5087;42.662;23.466;2022-09-24T11:07:39;95675.53;;;20.16;53.82
10097;BME280;5087;42.662;23.466;2022-09-24T11:10:22;95686.66;;;19.27;52.58
10097;BME280;5087;42.662;23.466;2022-09-24T11:13:03;95674.41;;;17.91;55.32
10097;BME280;5087;42.662;23.466;2022-09-24T11:15:51;95682.63;;;17.11;57.20
10097;BME280;5087;42.662;23.466;2022-09-24T11:18:35;95677.84;;;18.78;54.27
10097;BME280;5087;42.662;23.466;2022-09-24T11:21:21;95640.59;;;19.47;52.94
10097;BME280;5087;42.662;23.466;2022-09-24T11:26:51;95649.69;;;17.75;54.63
10097;BME280;5087;42.662;23.466;2022-09-24T11:29:42;95647.81;;;17.95;53.92
10097;BME280;5087;42.662;23.466;2022-09-24T11:32:17;95620.91;;;18.98;51.63
10097;BME280;5087;42.662;23.466;2022-09-24T11:35:03;95648.00;;;19.66;49.53
10097;BME280;5087;42.662;23.466;2022-09-24T11:37:53;95648.84;;;19.24;50.48
10097;BME280;5087;42.662;23.466;2022-09-24T11:40:52;95648.16;;;19.77;50.18
10097;BME280;5087;42.662;23.466;2022-09-24T11:43:40;95635.94;;;19.51;47.13
10097;BME280;5087;42.662;23.466;2022-09-24T11:46:22;95618.81;;;19.61;47.60
10097;BME280;5087;42.662;23.466;2022-09-24T11:49:17;95610.84;;;20.06;45.70
10097;BME280;5087;42.662;23.466;2022-09-24T11:51:58;95623.16;;;19.39;45.82
10097;BME280;5087;42.662;23.466;2022-09-24T11:54:31;95614.91;;;19.63;45.63
10097;BME280;5087;42.662;23.466;2022-09-24T11:57:04;95630.22;;;19.87;46.34
10097;BME280;5087;42.662;23.466;2022-09-24T11:59:40;95629.91;;;20.19;44.69
10097;BME280;5087;42.662;23.466;2022-09-24T12:02:18;95607.63;;;19.77;45.17
10097;BME280;5087;42.662;23.466;2022-09-24T12:04:53;95598.28;;;20.09;43.45
10097;BME280;5087;42.662;23.466;2022-09-24T12:07:30;95604.50;;;20.33;44.04
10097;BME280;5087;42.662;23.466;2022-09-24T12:10:04;95586.44;;;20.08;43.67
10097;BME280;5087;42.662;23.466;2022-09-24T12:12:36;95582.13;;;20.42;41.98
10097;BME280;5087;42.662;23.466;2022-09-24T12:15:13;95601.22;;;19.70;43.87
10097;BME280;5087;42.662;23.466;2022-09-24T12:17:47;95609.66;;;20.38;43.91
10097;BME280;5087;42.662;23.466;2022-09-24T12:20:19;95606.31;;;19.91;43.82
10097;BME280;5087;42.662;23.466;2022-09-24T12:22:49;95603.81;;;20.43;45.00
10097;BME280;5087;42.662;23.466;2022-09-24T12:25:22;95594.63;;;21.00;42.75
10097;BME280;5087;42.662;23.466;2022-09-24T12:27:51;95561.84;;;20.95;40.67
10097;BME280;5087;42.662;23.466;2022-09-24T12:30:27;95601.81;;;21.12;40.55
10097;BME280;5087;42.662;23.466;2022-09-24T12:33:21;95584.63;;;20.20;42.00
10097;BME280;5087;42.662;23.466;2022-09-24T12:36:03;95596.50;;;20.58;41.29
10097;BME280;5087;42.662;23.466;2022-09-24T12:38:33;95576.41;;;20.23;41.44
10097;BME280;5087;42.662;23.466;2022-09-24T12:41:23;95583.94;;;20.27;41.88
10097;BME280;5087;42.662;23.466;2022-09-24T12:43:57;95602.84;;;19.98;42.50
10097;BME280;5087;42.662;23.466;2022-09-24T12:46:29;95599.47;;;19.58;43.31
10097;BME280;5087;42.662;23.466;2022-09-24T12:48:58;95563.25;;;19.83;42.06
10097;BME280;5087;42.662;23.466;2022-09-24T12:51:33;95605.03;;;20.46;42.50
10097;BME280;5087;42.662;23.466;2022-09-24T12:54:05;95585.84;;;20.91;42.36
10097;BME280;5087;42.662;23.466;2022-09-24T12:56:35;95577.16;;;20.54;40.61
10097;BME280;5087;42.662;23.466;2022-09-24T12:59:02;95572.94;;;20.64;39.99
10097;BME280;5087;42.662;23.466;2022-09-24T13:01:31;95569.72;;;20.93;39.91
10097;BME280;5087;42.662;23.466;2022-09-24T13:04:04;95564.91;;;21.27;40.05
10097;BME280;5087;42.662;23.466;2022-09-24T13:06:34;95547.31;;;21.01;40.87
10097;BME280;5087;42.662;23.466;2022-09-24T13:09:02;95553.59;;;20.61;40.65
10097;BME280;5087;42.662;23.466;2022-09-24T13:11:31;95545.38;;;20.68;41.72
10097;BME280;5087;42.662;23.466;2022-09-24T13:14:18;95551.91;;;20.86;40.91
10097;BME280;5087;42.662;23.466;2022-09-24T13:16:48;95563.06;;;20.26;40.72
10097;BME280;5087;42.662;23.466;2022-09-24T13:19:32;95550.88;;;20.64;41.29
10097;BME280;5087;42.662;23.466;2022-09-24T13:22:01;95553.38;;;20.77;41.89
10097;BME280;5087;42.662;23.466;2022-09-24T13:24:31;95534.56;;;20.48;41.40
10097;BME280;5087;42.662;23.466;2022-09-24T13:27:22;95560.00;;;21.10;41.37